createdAt,value
2016-05-07T08:06:51.630Z,21.17
2016-05-07T08:07:51.008Z,21.16
2016-05-07T08:08:50.964Z,21.24
2016-05-07T08:09:50.935Z,21.29
2016-05-07T08:10:50.891Z,21.29
2016-05-07T08:11:50.862Z,21.35
2016-05-07T08:12:50.725Z,21.3
2016-05-07T08:13:50.931Z,21.42
2016-05-07T08:14:50.808Z,21.48
2016-05-07T08:15:50.609Z,21.56
2016-05-07T08:16:50.611Z,21.59
2016-05-07T08:17:50.816Z,21.71
2016-05-07T08:18:50.756Z,21.79
2016-05-07T08:19:51.165Z,21.83
2016-05-07T08:20:50.715Z,21.92
2016-05-07T08:21:50.562Z,21.88
2016-05-07T08:22:50.798Z,22.02
2016-05-07T08:23:50.660Z,22.06
2016-05-07T08:24:50.663Z,22.06
2016-05-07T08:25:50.464Z,22.12
2016-05-07T08:26:50.622Z,22.19
2016-05-07T08:27:50.468Z,22.29
2016-05-07T08:28:50.554Z,22.37
2016-05-07T08:29:50.677Z,22.46
2016-05-07T08:30:50.443Z,22.49
2016-05-07T08:31:50.613Z,22.52
2016-05-07T08:32:50.643Z,22.59
2016-05-07T08:33:50.482Z,22.65
2016-05-07T08:34:50.891Z,22.69
2016-05-07T08:35:50.706Z,22.68
2016-05-07T08:36:51.662Z,22.77
2016-05-07T08:37:52.038Z,22.8
2016-05-07T08:38:51.415Z,22.86
2016-05-07T08:39:52.236Z,22.96
2016-05-07T08:40:50.635Z,22.94
2016-05-07T08:41:50.659Z,23.07
2016-05-07T08:42:51.246Z,23.07
2016-05-07T08:43:52.347Z,23.17
2016-05-07T08:44:51.040Z,23.09
2016-05-07T08:45:50.904Z,23.22
2016-05-07T08:46:50.783Z,23.22
2016-05-07T08:47:50.662Z,23.31
2016-05-07T08:48:50.574Z,23.35
2016-05-07T08:49:50.765Z,23.43
2016-05-07T08:50:50.502Z,23.46
2016-05-07T08:51:51.147Z,23.53
2016-05-07T08:52:50.634Z,23.55
2016-05-07T08:53:50.434Z,23.57
2016-05-07T08:54:51.406Z,23.58
2016-05-07T08:55:50.472Z,23.7
2016-05-07T08:56:51.007Z,23.67
2016-05-07T08:57:50.760Z,23.82
2016-05-07T08:58:50.356Z,23.77
2016-05-07T08:59:50.421Z,23.87
2016-05-07T09:00:50.361Z,23.85
2016-05-07T09:01:50.146Z,23.85
2016-05-07T09:02:50.320Z,23.83
2016-05-07T09:03:50.292Z,23.98
2016-05-07T09:04:50.201Z,23.9
2016-05-07T09:05:50.235Z,23.95
2016-05-07T09:06:50.127Z,23.94
2016-05-07T09:07:50.162Z,23.97
2016-05-07T09:08:50.274Z,24.05
2016-05-07T09:09:50.152Z,23.98
2016-05-07T09:10:50.138Z,24.05
2016-05-07T09:11:50.095Z,24.1
2016-05-07T09:12:49.972Z,24.08
2016-05-07T09:13:49.882Z,24.14
2016-05-07T09:14:50.103Z,24.1
2016-05-07T09:15:50.199Z,24.13
2016-05-07T09:16:49.842Z,24.17
2016-05-07T09:17:49.923Z,24.13
2016-05-07T09:18:49.723Z,24.22
2016-05-07T09:19:50.038Z,24.16
2016-05-07T09:20:50.134Z,24.19
2016-05-07T09:21:50.074Z,24.23
2016-05-07T09:22:49.906Z,24.29
2016-05-07T09:23:50.064Z,24.23
2016-05-07T09:24:49.755Z,24.24
2016-05-07T09:25:49.789Z,24.23
2016-05-07T09:26:49.853Z,24.29
2016-05-07T09:27:50.075Z,24.35
2016-05-07T09:28:50.078Z,24.38
2016-05-07T09:29:49.768Z,24.39
2016-05-07T09:30:49.817Z,24.44
2016-05-07T09:31:50.085Z,24.5
2016-05-07T09:32:49.776Z,24.56
2016-05-07T09:33:49.763Z,24.6
2016-05-07T09:34:49.797Z,24.56
2016-05-07T09:35:49.738Z,24.64
2016-05-07T09:36:49.787Z,24.68
2016-05-07T09:37:49.321Z,24.68
2016-05-07T09:38:49.667Z,24.68
2016-05-07T09:39:49.623Z,24.76
2016-05-07T09:40:49.610Z,24.71
2016-05-07T09:41:50.332Z,24.79
2016-05-07T09:42:53.803Z,24.85
2016-05-07T09:43:49.884Z,24.79
2016-05-07T09:44:49.793Z,24.85
2016-05-07T09:45:49.590Z,24.82
2016-05-07T09:46:49.546Z,24.91
2016-05-07T09:47:49.863Z,24.92
2016-05-07T09:48:49.865Z,24.98
2016-05-07T09:49:50.040Z,25
2016-05-07T09:50:49.447Z,25
2016-05-07T09:51:49.528Z,25.07
2016-05-07T09:52:52.845Z,25.1
2016-05-07T09:53:49.486Z,25.07
2016-05-07T09:54:52.131Z,25.15
2016-05-07T09:55:49.866Z,25.12
2016-05-07T09:56:49.557Z,25.15
2016-05-07T09:57:49.981Z,25.12
2016-05-07T09:58:49.484Z,25.09
2016-05-07T09:59:49.283Z,25.15
2016-05-07T10:00:49.317Z,25.27
2016-05-07T10:01:49.320Z,25.24
2016-05-07T10:02:49.308Z,25.2
2016-05-07T10:03:49.341Z,25.32
2016-05-07T10:04:49.250Z,25.22
2016-05-07T10:05:49.113Z,25.27
2016-05-07T10:06:49.365Z,25.32
2016-05-07T10:07:49.211Z,25.35
2016-05-07T10:08:49.074Z,25.35
2016-05-07T10:09:49.169Z,25.38
2016-05-07T10:10:49.110Z,25.39
2016-05-07T10:11:49.457Z,25.49
2016-05-07T10:12:49.521Z,25.47
2016-05-07T10:13:49.009Z,25.44
2016-05-07T10:14:49.027Z,25.44
2016-05-07T10:15:49.060Z,25.38
2016-05-07T10:16:49.001Z,25.46
2016-05-07T10:17:49.207Z,25.49
2016-05-07T10:18:49.929Z,25.47
2016-05-07T10:19:48.993Z,25.42
2016-05-07T10:20:48.934Z,25.39
2016-05-07T10:21:48.843Z,25.44
2016-05-07T10:22:49.095Z,25.46
2016-05-07T10:23:48.988Z,25.47
2016-05-07T10:24:48.928Z,25.42
2016-05-07T10:25:49.604Z,25.38
2016-05-07T10:26:49.731Z,25.47
2016-05-07T10:27:49.244Z,25.52
2016-05-07T10:28:48.888Z,25.46
2016-05-07T10:29:56.767Z,25.5
2016-05-07T10:30:50.924Z,25.44
2016-05-07T10:31:50.146Z,25.5
2016-05-07T10:32:49.289Z,25.49
2016-05-07T10:33:48.776Z,25.47
2016-05-07T10:34:48.747Z,25.5
2016-05-07T10:35:48.642Z,25.35
2016-05-07T10:36:48.753Z,25.37
2016-05-07T10:37:51.333Z,25.34
2016-05-07T10:38:48.744Z,25.28
2016-05-07T10:39:49.199Z,25.47
2016-05-07T10:40:48.732Z,25.47
2016-05-07T10:41:49.032Z,25.52
2016-05-07T10:42:48.957Z,25.56
2016-05-07T10:43:48.757Z,25.49
2016-05-07T10:44:48.634Z,25.52
2016-05-07T10:45:48.496Z,25.46
2016-05-07T10:46:48.671Z,25.47
2016-05-07T10:47:49.923Z,25.5
2016-05-07T10:48:49.113Z,25.54
2016-05-07T10:49:48.929Z,25.47
2016-05-07T10:50:48.604Z,25.43
2016-05-07T10:51:51.781Z,25.5
2016-05-07T10:52:48.484Z,25.47
2016-05-07T10:53:49.049Z,25.42
2016-05-07T10:54:48.801Z,25.49
2016-05-07T10:55:48.867Z,25.42
2016-05-07T10:56:48.556Z,25.47
2016-05-07T10:57:48.232Z,25.49
2016-05-07T10:58:48.828Z,25.43
2016-05-07T11:00:48.334Z,25.52
2016-05-07T11:01:48.398Z,25.65
2016-05-07T11:02:48.572Z,25.59
2016-05-07T11:03:48.325Z,25.59
2016-05-07T11:04:48.251Z,25.61
2016-05-07T11:05:48.300Z,25.62
2016-05-07T11:06:50.989Z,25.64
2016-05-07T11:07:48.197Z,25.75
2016-05-07T11:08:48.042Z,25.72
2016-05-07T11:09:50.544Z,25.72
2016-05-07T11:10:48.688Z,25.75
2016-05-07T11:11:47.988Z,25.84
2016-05-07T11:12:48.256Z,25.9
2016-05-07T11:13:48.071Z,25.9
2016-05-07T11:14:48.261Z,25.87
2016-05-07T11:15:48.108Z,25.89
2016-05-07T11:16:48.188Z,25.89
2016-05-07T11:17:48.035Z,25.82
2016-05-07T11:18:48.194Z,25.91
2016-05-07T11:19:49.119Z,25.9
2016-05-07T11:20:48.621Z,25.94
2016-05-07T11:21:48.124Z,25.94
2016-05-07T11:22:48.267Z,25.91
2016-05-07T11:23:48.473Z,25.89
2016-05-07T11:24:48.320Z,25.99
2016-05-07T11:25:48.370Z,25.97
2016-05-07T11:26:49.090Z,25.99
2016-05-07T11:28:48.112Z,25.99
2016-05-07T11:29:47.958Z,26.02
2016-05-07T11:30:48.101Z,26.04
2016-05-07T11:31:48.401Z,26.01
2016-05-07T11:32:47.825Z,26.02
2016-05-07T11:33:47.813Z,26.02
2016-05-07T11:34:47.550Z,26.18
2016-05-07T11:35:47.818Z,26.06
2016-05-07T11:36:48.008Z,26.04
2016-05-07T11:37:47.713Z,26.09
2016-05-07T11:38:47.780Z,26.12
2016-05-07T11:39:47.750Z,26.05
2016-05-07T11:40:47.535Z,26.17
2016-05-07T11:41:47.662Z,26.12
2016-05-07T11:42:47.681Z,26.21
2016-05-07T11:43:47.683Z,26.21
2016-05-07T11:44:47.638Z,26.22
2016-05-07T11:45:47.580Z,26.25
2016-05-07T11:46:47.972Z,26.28
2016-05-07T11:47:47.600Z,26.28
2016-05-07T11:48:47.571Z,26.32
2016-05-07T11:49:47.543Z,26.4
2016-05-07T11:50:47.562Z,26.36
2016-05-07T11:51:47.549Z,26.44
2016-05-07T11:52:47.473Z,26.35
2016-05-07T11:53:47.538Z,26.5
2016-05-07T11:54:47.463Z,26.5
2016-05-07T11:55:47.465Z,26.55
2016-05-07T11:56:47.437Z,26.5
2016-05-07T11:57:47.470Z,26.73
2016-05-07T11:58:47.427Z,26.74
2016-05-07T11:59:47.445Z,26.92
2016-05-07T12:00:47.245Z,27.43
2016-05-07T12:01:47.356Z,28.14
2016-05-07T12:02:47.312Z,29.63
2016-05-07T12:03:47.284Z,31.73
2016-05-07T12:04:47.567Z,32.37
2016-05-07T12:05:47.617Z,31.95
2016-05-07T12:06:47.292Z,30.9
2016-05-07T12:07:47.373Z,30.05
2016-05-07T12:08:47.266Z,29.89
2016-05-07T12:09:47.284Z,29.72
2016-05-07T12:10:47.147Z,29.52
2016-05-07T12:11:47.227Z,29.16
2016-05-07T12:12:47.667Z,29.1
2016-05-07T12:13:47.139Z,29.03
2016-05-07T12:14:47.329Z,28.84
2016-05-07T12:15:47.144Z,28.7
2016-05-07T12:16:47.163Z,28.63
2016-05-07T12:17:47.165Z,28.47
2016-05-07T12:18:47.121Z,28.48
2016-05-07T12:19:47.140Z,28.41
2016-05-07T12:20:47.111Z,28.29
2016-05-07T12:21:47.066Z,28.51
2016-05-07T12:22:47.085Z,28.75
2016-05-07T12:23:47.010Z,28.93
2016-05-07T12:24:46.996Z,29.26
2016-05-07T12:25:46.734Z,29.45
2016-05-07T12:26:47.095Z,29.49
2016-05-07T12:27:48.162Z,29.59
2016-05-07T12:28:46.960Z,29.92
2016-05-07T12:29:46.932Z,30.81
2016-05-07T12:30:46.965Z,31.35
2016-05-07T12:31:47.015Z,31.68
2016-05-07T12:32:46.940Z,31.23
2016-05-07T12:33:46.723Z,30.81
2016-05-07T12:34:46.899Z,30.54
2016-05-07T12:35:46.885Z,30.61
2016-05-07T12:36:46.717Z,30.5
2016-05-07T12:37:46.750Z,30.24
2016-05-07T12:38:46.581Z,30.16
2016-05-07T12:39:46.802Z,30.12
2016-05-07T12:40:46.853Z,30.16
2016-05-07T12:41:46.917Z,29.97
2016-05-07T12:42:46.639Z,29.72
2016-05-07T12:43:46.875Z,29.65
2016-05-07T12:44:47.035Z,29.59
2016-05-07T12:45:46.756Z,29.49
2016-05-07T12:46:46.588Z,29.44
2016-05-07T12:47:46.730Z,29.43
2016-05-07T12:48:46.639Z,29.35
2016-05-07T12:49:46.658Z,29.37
2016-05-07T12:50:46.488Z,29.49
2016-05-07T12:51:46.491Z,29.41
2016-05-07T12:52:46.696Z,29.43
2016-05-07T12:53:46.559Z,29.94
2016-05-07T12:54:46.967Z,29.62
2016-05-07T12:55:46.643Z,29.43
2016-05-07T12:56:46.676Z,29.45
2016-05-07T12:57:46.492Z,29.28
2016-05-07T12:58:46.885Z,29.03
2016-05-07T12:59:46.560Z,28.93
2016-05-07T13:00:46.500Z,28.88
2016-05-07T13:01:46.690Z,28.9
2016-05-07T13:02:46.631Z,28.77
2016-05-07T13:03:46.523Z,28.8
2016-05-07T13:04:46.479Z,28.88
2016-05-07T13:05:46.419Z,28.8
2016-05-07T13:06:46.922Z,28.73
2016-05-07T13:07:46.440Z,28.66
2016-05-07T13:08:46.427Z,28.6
2016-05-07T13:09:46.477Z,28.53
2016-05-07T13:10:46.386Z,28.53
2016-05-07T13:11:46.342Z,28.44
2016-05-07T13:12:46.313Z,28.51
2016-05-07T13:13:46.410Z,29.93
2016-05-07T13:14:46.349Z,30.78
2016-05-07T13:15:46.306Z,32.86
2016-05-07T13:16:46.355Z,33.65
2016-05-07T13:17:46.248Z,35.15
2016-05-07T13:18:46.298Z,37.78
2016-05-07T13:19:46.066Z,37.95
2016-05-07T13:20:46.225Z,37.38
2016-05-07T13:21:46.227Z,36.45
2016-05-07T13:22:46.184Z,34.74
2016-05-07T13:23:45.952Z,33.51
2016-05-07T13:24:46.157Z,32.67
2016-05-07T13:25:46.145Z,32.96
2016-05-07T13:26:46.101Z,33.3
2016-05-07T13:27:45.948Z,32.69
2016-05-07T13:28:46.278Z,33.85
2016-05-07T13:29:46.062Z,37.61
2016-05-07T13:30:46.158Z,39.64
2016-05-07T13:31:45.942Z,41.5
2016-05-07T13:32:46.164Z,42.12
2016-05-07T13:33:46.073Z,43.04
2016-05-07T13:34:46.059Z,44.82
2016-05-07T13:35:46.031Z,46.78
2016-05-07T13:36:45.847Z,48.53
2016-05-07T13:37:45.850Z,50.4
2016-05-07T13:38:45.945Z,52.09
2016-05-07T13:39:46.026Z,50.8
2016-05-07T13:40:45.998Z,47.44
2016-05-07T13:41:45.953Z,44.48
2016-05-07T13:42:45.925Z,42.81
2016-05-07T13:43:45.662Z,41.24
2016-05-07T13:44:45.900Z,39.81
2016-05-07T13:45:46.042Z,38.98
2016-05-07T13:46:45.717Z,41.82
2016-05-07T13:47:45.766Z,42.54
2016-05-07T13:48:45.863Z,44.81
2016-05-07T13:49:45.647Z,41.91
2016-05-07T13:50:45.869Z,41.05
2016-05-07T13:51:45.840Z,40.81
2016-05-07T13:52:45.796Z,39.74
2016-05-07T13:53:45.658Z,39.03
2016-05-07T13:54:45.802Z,38.9
2016-05-07T13:55:45.835Z,38.45
2016-05-07T13:56:45.618Z,38.05
2016-05-07T13:57:45.793Z,38.26
2016-05-07T13:58:45.921Z,38.27
2016-05-07T13:59:45.751Z,38.33
2016-05-07T14:00:45.739Z,39.59
2016-05-07T14:01:45.773Z,40.86
2016-05-07T14:02:45.760Z,41.74
2016-05-07T14:03:45.762Z,41.21
2016-05-07T14:04:45.781Z,41.88
2016-05-07T14:05:45.581Z,42.51
2016-05-07T14:06:45.583Z,42.65
2016-05-07T14:07:45.681Z,41.29
2016-05-07T14:08:45.729Z,40.24
2016-05-07T14:09:45.686Z,39.46
2016-05-07T14:10:45.484Z,39.15
2016-05-07T14:11:45.659Z,39.03
2016-05-07T14:12:46.365Z,38.66
2016-05-07T14:13:45.775Z,37.92
2016-05-07T14:14:45.449Z,38.76
2016-05-07T14:15:45.639Z,38.75
2016-05-07T14:16:45.642Z,40.32
2016-05-07T14:17:45.614Z,39.27
2016-05-07T14:18:45.631Z,37.64
2016-05-07T14:19:45.633Z,36.52
2016-05-07T14:20:45.605Z,35.76
2016-05-07T14:21:45.421Z,35.2
2016-05-07T14:22:45.595Z,35.36
2016-05-07T14:23:45.473Z,34.57
2016-05-07T14:24:45.663Z,34.09
2016-05-07T14:25:45.369Z,33.58
2016-05-07T14:26:45.574Z,33.13
2016-05-07T14:27:46.327Z,32.86
2016-05-07T14:28:45.533Z,32.51
2016-05-07T14:29:45.521Z,32.14
2016-05-07T14:30:45.585Z,31.99
2016-05-07T14:31:45.448Z,31.64
2016-05-07T14:32:45.466Z,31.5
2016-05-07T14:33:45.313Z,31.26
2016-05-07T14:34:45.518Z,31.53
2016-05-07T14:35:45.473Z,31.54
2016-05-07T14:36:45.273Z,35.3
2016-05-07T14:37:45.417Z,38.63
2016-05-07T14:38:45.481Z,40
2016-05-07T14:39:45.375Z,41.18
2016-05-07T14:40:45.300Z,41.68
2016-05-07T14:41:45.568Z,41.7
2016-05-07T14:42:45.289Z,41.65
2016-05-07T14:43:45.386Z,43.71
2016-05-07T14:44:45.280Z,45.02
2016-05-07T14:45:45.204Z,45.5
2016-05-07T14:46:45.300Z,45.87
2016-05-07T14:47:45.350Z,47.25
2016-05-07T14:48:45.228Z,48.2
2016-05-07T14:49:45.309Z,48.95
2016-05-07T14:50:45.671Z,49.51
2016-05-07T14:51:45.407Z,49.79
2016-05-07T14:52:45.269Z,49.64
2016-05-07T14:53:45.413Z,49.35
2016-05-07T14:54:45.196Z,49.26
2016-05-07T14:55:45.372Z,49.44
2016-05-07T14:56:45.405Z,49.55
2016-05-07T14:57:50.268Z,49.47
2016-05-07T14:58:45.254Z,49.47
2016-05-07T14:59:45.179Z,49.55
2016-05-07T15:00:45.307Z,49.76
2016-05-07T15:01:45.184Z,49.77
2016-05-07T15:02:45.187Z,49.83
2016-05-07T15:03:45.268Z,50.07
2016-05-07T15:04:45.349Z,50.15
2016-05-07T15:05:45.195Z,50.17
2016-05-07T15:06:45.229Z,49.85
2016-05-07T15:07:45.185Z,49.29
2016-05-07T15:08:45.000Z,48.82
2016-05-07T15:09:45.581Z,47.87
2016-05-07T15:10:45.114Z,46.69
2016-05-07T15:12:45.136Z,44.48
2016-05-07T15:13:45.076Z,43.63
2016-05-07T15:14:45.360Z,43.26
2016-05-07T15:15:45.097Z,42.94
2016-05-07T15:16:45.084Z,42.7
2016-05-07T15:17:45.133Z,41.75
2016-05-07T15:18:45.121Z,40.59
2016-05-07T15:19:45.108Z,39.56
2016-05-07T15:20:45.298Z,38.76
2016-05-07T15:21:45.050Z,38.26
2016-05-07T15:22:45.085Z,37.62
2016-05-07T15:23:44.978Z,36.98
2016-05-07T15:24:44.996Z,37.24
2016-05-07T15:25:45.124Z,37.77
2016-05-07T15:26:45.236Z,38.24
2016-05-07T15:27:45.083Z,38.79
2016-05-07T15:28:44.976Z,39.22
2016-05-07T15:29:45.041Z,39.15
2016-05-07T15:30:44.997Z,38.32
2016-05-07T15:31:44.890Z,37.71
2016-05-07T15:32:44.845Z,37.43
2016-05-07T15:33:45.082Z,36.79
2016-05-07T15:34:44.789Z,36.27
2016-05-07T15:35:44.760Z,35.67
2016-05-07T15:36:44.981Z,35.36
2016-05-07T15:37:44.937Z,34.88
2016-05-07T15:38:45.003Z,34.83
2016-05-07T15:39:45.208Z,35.35
2016-05-07T15:40:44.930Z,34.92
2016-05-07T15:41:44.995Z,34.44
2016-05-07T15:42:45.045Z,34.44
2016-05-07T15:43:44.891Z,34.04
2016-05-07T15:44:44.909Z,33.87
2016-05-07T15:45:44.881Z,33.82
2016-05-07T15:46:44.868Z,33.41
2016-05-07T15:47:44.839Z,33.08
2016-05-07T15:48:44.915Z,32.86
2016-05-07T15:49:44.840Z,32.54
2016-05-07T15:50:44.936Z,32.33
2016-05-07T15:51:44.814Z,32.8
2016-05-07T15:52:44.833Z,32.74
2016-05-07T15:53:44.789Z,32.51
2016-05-07T15:54:44.853Z,32.32
2016-05-07T15:55:44.902Z,32.35
2016-05-07T15:56:45.031Z,32.79
2016-05-07T15:57:45.127Z,33.23
2016-05-07T15:58:44.723Z,33.17
2016-05-07T15:59:44.758Z,32.86
2016-05-07T16:00:44.651Z,32.54
2016-05-07T16:01:44.528Z,32.22
2016-05-07T16:02:44.734Z,32.11
2016-05-07T16:03:44.737Z,31.76
2016-05-07T16:04:44.990Z,31.61
2016-05-07T16:05:44.851Z,31.36
2016-05-07T16:06:44.635Z,31.21
2016-05-07T16:07:44.638Z,31.04
2016-05-07T16:08:44.594Z,30.89
2016-05-07T16:09:44.487Z,30.8
2016-05-07T16:10:44.631Z,30.64
2016-05-07T16:11:44.570Z,30.75
2016-05-07T16:12:44.854Z,31.02
2016-05-07T16:13:44.765Z,31.13
2016-05-07T16:14:44.704Z,31.26
2016-05-07T16:15:44.628Z,31.31
2016-05-07T16:16:44.412Z,31.39
2016-05-07T16:17:44.525Z,31.4
2016-05-07T16:18:44.746Z,31.79
2016-05-07T16:19:44.531Z,32.06
2016-05-07T16:20:44.516Z,32.32
2016-05-07T16:21:44.628Z,32.49
2016-05-07T16:22:44.491Z,32.48
2016-05-07T16:23:44.525Z,32.35
2016-05-07T16:24:44.715Z,32.64
2016-05-07T16:25:44.437Z,32.71
2016-05-07T16:26:44.517Z,32.84
2016-05-07T16:27:44.691Z,32.88
2016-05-07T16:28:44.538Z,32.81
2016-05-07T16:29:44.900Z,32.84
2016-05-07T16:30:44.278Z,32.79
2016-05-07T16:31:44.360Z,32.67
2016-05-07T16:32:44.393Z,32.54
2016-05-07T16:33:44.332Z,32.49
2016-05-07T16:34:44.430Z,32.33
2016-05-07T16:35:44.371Z,32.17
2016-05-07T16:36:44.373Z,32.13
2016-05-07T16:37:44.110Z,32.1
2016-05-07T16:38:44.096Z,31.82
2016-05-07T16:39:44.115Z,31.65
2016-05-07T16:40:44.259Z,31.5
2016-05-07T16:41:44.292Z,31.4
2016-05-07T16:42:46.264Z,31.24
2016-05-07T16:43:44.047Z,31.13
2016-05-07T16:44:44.206Z,31.15
2016-05-07T16:45:44.007Z,31.12
2016-05-07T16:46:43.993Z,30.94
2016-05-07T16:47:43.980Z,30.84
2016-05-07T16:48:44.155Z,30.72
2016-05-07T16:49:44.162Z,30.57
2016-05-07T16:50:44.009Z,30.46
2016-05-07T16:51:44.277Z,30.34
2016-05-07T16:52:44.139Z,30.14
2016-05-07T16:53:44.157Z,30.05
2016-05-07T16:54:43.925Z,29.97
2016-05-07T16:55:44.147Z,29.84
2016-05-07T16:56:43.775Z,29.68
2016-05-07T16:57:44.325Z,29.72
2016-05-07T16:58:43.328Z,29.96
2016-05-07T16:59:44.439Z,30.07
2016-05-07T17:00:44.052Z,30.12
2016-05-07T17:01:44.382Z,30.19
2016-05-07T17:02:44.118Z,30.09
2016-05-07T17:03:44.029Z,29.92
2016-05-07T17:04:44.047Z,29.9
2016-05-07T17:05:43.987Z,29.75
2016-05-07T17:06:43.912Z,29.77
2016-05-07T17:07:43.976Z,29.9
2016-05-07T17:08:43.948Z,30.18
2016-05-07T17:09:43.920Z,30.45
2016-05-07T17:10:43.953Z,30.72
2016-05-07T17:11:43.925Z,30.9
2016-05-07T17:12:46.662Z,31.2
2016-05-07T17:13:43.883Z,31.54
2016-05-07T17:14:43.870Z,31.8
2016-05-07T17:15:43.873Z,32.06
2016-05-07T17:16:43.703Z,32.17
2016-05-07T17:17:43.831Z,32.29
2016-05-07T17:18:43.786Z,32.36
2016-05-07T17:19:43.914Z,32.51
2016-05-07T17:20:43.793Z,32.48
2016-05-07T17:21:43.842Z,32.48
2016-05-07T17:22:43.767Z,32.33
2016-05-07T17:23:43.441Z,32.11
2016-05-07T17:24:43.756Z,31.91
2016-05-07T17:25:43.728Z,31.67
2016-05-07T17:26:43.746Z,31.42
2016-05-07T17:27:44.327Z,31.26
2016-05-07T17:28:43.736Z,30.99
2016-05-07T17:29:43.676Z,30.87
2016-05-07T17:30:43.694Z,30.75
2016-05-07T17:31:43.650Z,30.56
2016-05-07T17:32:43.699Z,30.27
2016-05-07T17:33:43.656Z,30.16
2016-05-07T17:34:43.705Z,30.02
2016-05-07T17:35:43.969Z,29.89
2016-05-07T17:36:43.671Z,29.59
2016-05-07T17:37:43.731Z,29.49
2016-05-07T17:38:43.776Z,29.38
2016-05-07T17:39:43.759Z,29.31
2016-05-07T17:40:43.827Z,29.19
2016-05-07T17:41:43.782Z,29.1
2016-05-07T17:42:44.175Z,28.96
2016-05-07T17:43:43.724Z,28.88
2016-05-07T17:44:43.757Z,28.77
2016-05-07T17:45:43.882Z,28.68
2016-05-07T17:46:43.563Z,28.68
2016-05-07T17:47:43.742Z,28.56
2016-05-07T17:48:43.658Z,28.44
2016-05-07T17:49:43.744Z,28.35
2016-05-07T17:50:43.830Z,28.35
2016-05-07T17:51:57.350Z,28.29
2016-05-07T17:52:43.808Z,28.22
2016-05-07T17:53:43.718Z,28.17
2016-05-07T17:54:43.660Z,28.1
2016-05-07T17:55:43.883Z,27.98
2016-05-07T17:56:43.575Z,27.88
2016-05-07T17:57:43.656Z,27.91
2016-05-07T17:58:43.754Z,27.82
2016-05-07T17:59:43.694Z,27.73
2016-05-07T18:00:43.650Z,27.71
2016-05-07T18:01:43.669Z,27.62
2016-05-07T18:02:43.796Z,27.61
2016-05-07T18:03:43.705Z,27.42
2016-05-07T18:04:43.646Z,27.43
2016-05-07T18:05:43.523Z,27.39
2016-05-07T18:06:43.619Z,27.43
2016-05-07T18:07:43.669Z,27.26
2016-05-07T18:08:43.610Z,27.26
2016-05-07T18:09:43.580Z,27.23
2016-05-07T18:10:43.302Z,27.21
2016-05-07T18:11:43.586Z,27.17
2016-05-07T18:12:43.651Z,27.1
2016-05-07T18:13:43.482Z,27.01
2016-05-07T18:14:43.501Z,27.02
2016-05-07T18:15:43.237Z,26.96
2016-05-07T18:16:43.271Z,26.96
2016-05-07T18:17:43.509Z,26.91
2016-05-07T18:18:43.340Z,26.89
2016-05-07T18:19:43.295Z,26.81
2016-05-07T18:20:43.485Z,26.77
2016-05-07T18:21:43.441Z,26.74
2016-05-07T18:22:43.147Z,26.74
2016-05-07T18:23:43.368Z,26.58
2016-05-07T18:24:43.339Z,26.61
2016-05-07T18:25:43.405Z,26.58
2016-05-07T18:26:43.330Z,26.5
2016-05-07T18:27:43.879Z,26.42
2016-05-07T18:28:43.211Z,26.47
2016-05-07T18:29:42.916Z,26.4
2016-05-07T18:30:43.200Z,26.29
2016-05-07T18:31:43.249Z,26.27
2016-05-07T18:32:43.143Z,26.25
2016-05-07T18:33:43.239Z,26.22
2016-05-07T18:34:43.116Z,26.11
2016-05-07T18:35:43.120Z,26.11
2016-05-07T18:36:43.247Z,26.11
2016-05-07T18:37:43.188Z,26.02
2016-05-07T18:38:42.971Z,26.01
2016-05-07T18:39:43.052Z,25.99
2016-05-07T18:40:43.133Z,25.91
2016-05-07T18:41:42.917Z,25.87
2016-05-07T18:42:43.248Z,25.9
2016-05-07T18:43:42.969Z,25.83
2016-05-07T18:44:42.831Z,25.74
2016-05-07T18:45:42.787Z,25.74
2016-05-07T18:46:42.946Z,25.69
2016-05-07T18:47:43.105Z,25.67
2016-05-07T18:48:43.060Z,25.57
2016-05-07T18:49:43.095Z,25.61
2016-05-07T18:50:42.926Z,25.52
2016-05-07T18:51:43.101Z,25.47
2016-05-07T18:52:42.884Z,25.42
2016-05-07T18:53:42.902Z,25.38
2016-05-07T18:54:42.843Z,25.39
2016-05-07T18:55:42.845Z,25.31
2016-05-07T18:56:42.739Z,25.35
2016-05-07T18:57:43.053Z,25.32
2016-05-07T18:58:42.776Z,25.25
2016-05-07T18:59:42.778Z,25.25
2016-05-07T19:00:42.749Z,25.22
2016-05-07T19:01:42.815Z,25.19
2016-05-07T19:02:42.817Z,25.16
2016-05-07T19:03:42.647Z,25.1
2016-05-07T19:04:42.651Z,25.12
2016-05-07T19:05:42.872Z,25.07
2016-05-07T19:06:42.484Z,25.05
2016-05-07T19:07:42.753Z,24.98
2016-05-07T19:08:42.771Z,24.95
2016-05-07T19:09:42.648Z,25.06
2016-05-07T19:10:42.745Z,24.95
2016-05-07T19:11:42.622Z,24.87
2016-05-07T19:12:44.891Z,24.85
2016-05-07T19:13:42.534Z,24.71
2016-05-07T19:15:00.005Z,24.67
2016-05-07T19:15:42.618Z,24.71
2016-05-07T19:16:42.354Z,24.77
2016-05-07T19:17:42.483Z,24.71
2016-05-07T19:18:42.470Z,24.64
2016-05-07T19:19:42.519Z,24.6
2016-05-07T19:20:42.428Z,24.57
2016-05-07T19:21:42.774Z,24.52
2016-05-07T19:22:42.762Z,24.42
2016-05-07T19:23:42.526Z,24.45
2016-05-07T19:24:42.449Z,24.39
2016-05-07T19:25:42.624Z,24.39
2016-05-07T19:26:43.096Z,24.37
2016-05-07T19:27:42.411Z,24.35
2016-05-07T19:28:42.460Z,24.34
2016-05-07T19:29:42.307Z,24.24
2016-05-07T19:30:42.559Z,24.32
2016-05-07T19:31:42.312Z,24.26
2016-05-07T19:32:42.346Z,24.17
2016-05-07T19:33:42.271Z,24.24
2016-05-07T19:34:42.273Z,24.14
2016-05-07T19:35:42.229Z,24.12
2016-05-07T19:36:42.170Z,24.14
2016-05-07T19:37:42.219Z,24.14
2016-05-07T19:38:42.316Z,24.14
2016-05-07T19:39:42.005Z,24.04
2016-05-07T19:40:42.117Z,24.04
2016-05-07T19:41:42.041Z,23.94
2016-05-07T19:42:42.154Z,23.97
2016-05-07T19:43:42.064Z,23.97
2016-05-07T19:44:41.847Z,23.95
2016-05-07T19:45:42.460Z,24
2016-05-07T19:46:41.962Z,23.86
2016-05-07T19:47:41.965Z,23.83
2016-05-07T19:48:42.030Z,23.95
2016-05-07T19:49:42.126Z,23.89
2016-05-07T19:50:41.927Z,23.83
2016-05-07T19:51:41.976Z,23.8
2016-05-07T19:52:41.932Z,23.82
2016-05-07T19:53:41.918Z,23.79
2016-05-07T19:54:42.015Z,23.72
2016-05-07T19:55:41.924Z,23.75
2016-05-07T19:56:41.864Z,23.71
2016-05-07T19:57:41.710Z,23.71
2016-05-07T19:58:42.088Z,23.62
2016-05-07T19:59:41.763Z,23.64
2016-05-07T20:00:41.937Z,23.57
2016-05-07T20:01:41.643Z,23.55
2016-05-07T20:02:45.723Z,23.55
2016-05-07T20:03:41.867Z,23.49
2016-05-07T20:04:41.886Z,23.53
2016-05-07T20:05:41.560Z,23.5
2016-05-07T20:06:41.484Z,23.38
2016-05-07T20:07:41.565Z,23.4
2016-05-07T20:08:42.428Z,23.34
2016-05-07T20:09:41.492Z,23.34
2016-05-07T20:10:41.589Z,23.29
2016-05-07T20:11:42.248Z,23.26
2016-05-07T20:12:42.516Z,23.24
2016-05-07T20:13:41.456Z,23.2
2016-05-07T20:14:41.630Z,23.15
2016-05-07T20:15:41.540Z,23.19
2016-05-07T20:16:41.793Z,23.14
2016-05-07T20:17:41.499Z,23.17
2016-05-07T20:18:41.485Z,23.11
2016-05-07T20:19:41.535Z,23.11
2016-05-07T20:20:41.459Z,23.09
2016-05-07T20:21:41.275Z,23.04
2016-05-07T20:22:41.419Z,22.99
2016-05-07T20:23:41.312Z,22.97
2016-05-07T20:24:41.424Z,22.97
2016-05-07T20:25:42.270Z,22.97
2016-05-07T20:26:41.648Z,22.92
2016-05-07T20:27:41.666Z,22.89
2016-05-07T20:28:41.466Z,22.82
2016-05-07T20:29:41.421Z,22.87
2016-05-07T20:30:41.518Z,22.83
2016-05-07T20:31:41.083Z,22.8
2016-05-07T20:32:41.164Z,22.72
2016-05-07T20:33:41.260Z,22.68
2016-05-07T20:34:41.278Z,22.68
2016-05-07T20:35:41.407Z,22.72
2016-05-07T20:36:41.159Z,22.72
2016-05-07T20:37:41.145Z,22.74
2016-05-07T20:38:41.023Z,22.68
2016-05-07T20:39:41.526Z,22.68
2016-05-07T20:40:40.950Z,22.6
2016-05-07T20:41:41.172Z,22.53
2016-05-07T20:42:41.691Z,22.59
2016-05-07T20:43:41.209Z,22.5
2016-05-07T20:44:42.728Z,22.5
2016-05-07T20:45:41.136Z,22.46
2016-05-07T20:46:41.388Z,22.49
2016-05-07T20:47:41.720Z,22.52
2016-05-07T20:48:41.191Z,22.39
2016-05-07T20:49:41.177Z,22.43
2016-05-07T20:50:41.102Z,22.37
2016-05-07T20:51:41.105Z,22.38
2016-05-07T20:52:40.936Z,22.41
2016-05-07T20:53:41.174Z,22.35
2016-05-07T20:54:41.129Z,22.29
2016-05-07T20:55:41.679Z,22.32
2016-05-07T20:56:40.822Z,22.23
2016-05-07T20:57:40.965Z,22.25
2016-05-07T20:58:40.796Z,22.16
2016-05-07T20:59:43.534Z,22.17
2016-05-07T21:01:40.977Z,22.14
2016-05-07T21:02:40.838Z,21.99
2016-05-07T21:03:40.231Z,22.09
2016-05-07T21:04:40.828Z,22.07
2016-05-07T21:05:40.956Z,22.02